Horsford, United Kingdom
Current Conditions -  °F | °C
As of 8:20 AM on Thursday 29 Jan 2015 (Local Time) from EGSH Reporting Station
Few Clouds Few Clouds  
Wind Chill: 25°   Ceiling: Unl
Heat Index: 36°   Visibility: 6mi
Dew Point: 30°   Wind: 21mph
Humidity: 81%   Direction: 240°WSW
Pressure: 29.06"   Gusts: NA
Location:  52.7°N, 1.24°E
Report Text: EGSH 290820Z 24018KT 9999 FEW030 02/M01 Q0984 NOSIG
Loading
Personal Weather Stations






























Interactive Weather Map New forecast layout! Learn more

10-Day Weather Forecast

Advertisements
Track Severe Weather on mobile